Hauptseite
METAR-TAF:

METAR-TAF

Flughäfen :

Maschhad International Airport

Maschhad, Iran

Breite: 36-16N, Länge: 059-38E, Höhe: 989 m

Beobachtung

Neuester Wetterbericht von vor 21 Minuten, um 11:30 UTC
Wind 8 kt aus Ost
Temperatur 32°C
Luftfeuchtigkeit 21%
Luftdruck 1009 hPa
Sichtweite 10 km oder mehr
Leicht bewölkt in der Höhe von 3500 ft

METAR: OIMM 091130Z 09008KT 9999 FEW035 32/07 Q1009 A2980

Zeit: 16:21 (11:51 UTC)

Prognose

Neuester Wetterbericht von vor 36 Minuten, um 11:15 UTC
Gültige Prognose vom 09 um 12 UTC bis 10 um 18 UTC
Wind 8 kt aus Ost
Sichtweite: 8000 m

TAF: OIMM 091115Z 0912/1018 09008KT 8000 NSC

Wetterbeobachtungen und Prognosen von mehr als 4000 Flughäfen (METAR und TAF Bericht).

Die verfügbaren Stationen werden durch gelbe und rote Markierungen auf der Karte dargestellt.

Führen Sie die Maus auf sie, um den Namen der Station zu sehen.

Darauf klicken, um die Beobachtung von Wetterbeobachtungen und Prognosen zu sehen.

Um die Karte zu ändern : klicken Sie auf den grünen Tasten mit einem schwarzen Kreuz Zum Vergrößern, auf den grünen Button mit einem Gedankenstrich zu verkleinern, oder auf die grünen Pfeile für benachbarte Karten.


METAR-TAF: